Time;durP1;ratioP1;P1;durP2;ratioP2;P2;SDS_P1;SDS_P2;PMS_P1;PMS_P2;Temp;Humidity;BMP_temperature;BMP_pressure;BME280_temperature;BME280_humidity;BME280_pressure;Samples;Min_cycle;Max_cycle;Signal;HPM_P1;HPM_P2
2021/04/21 00:01:37;;;;;;;;;;;;;;;18.51;67.31;100726.84;4829550;29;1913;-69
2021/04/21 00:04:05;;;;;;;;;;;;;;;18.52;67.11;100732.97;4824859;29;1165;-69
2021/04/21 00:06:32;;;;;;;;;;;;;;;18.52;67.16;100728.53;4830398;29;1846;-69
2021/04/21 00:26:52;;;;;;;;;;;;;;;18.50;67.17;100711.97;4831668;29;1030;-69
2021/04/21 00:29:19;;;;;;;;;;;;;;;18.50;67.15;100711.97;4838005;29;1973;-69
2021/04/21 00:31:47;;;;;;;;;;;;;;;18.49;67.10;100707.63;4830487;29;806;-69
2021/04/21 00:34:16;;;;;;;;;;;;;;;18.50;67.17;100716.38;4837725;29;1902;-69
2021/04/21 00:36:46;;;;;;;;;;;;;;;18.48;67.12;100710.31;4836533;29;1479;-69
2021/04/21 00:39:12;;;;;;;;;;;;;;;18.49;67.12;100701.47;4836998;29;1934;-69
2021/04/21 00:41:42;;;;;;;;;;;;;;;18.48;67.17;100699.78;4836140;29;1241;-70
2021/04/21 00:44:28;;;;;;;;;;;;;;;18.48;67.14;100691.84;4835841;29;1941;-70
2021/04/21 00:47:01;;;;;;;;;;;;;;;18.48;67.14;100689.22;4833908;29;1241;-69
2021/04/21 00:49:46;;;;;;;;;;;;;;;18.49;67.10;100696.22;4834617;29;1915;-70
2021/04/21 01:09:45;;;;;;;;;;;;;;;18.46;67.24;100655.00;4811049;29;1908;-70
2021/04/21 01:12:13;;;;;;;;;;;;;;;18.47;66.97;100655.84;4819967;29;1984;-70
2021/04/21 01:14:42;;;;;;;;;;;;;;;18.42;67.24;100642.09;4812297;29;1477;-70
2021/04/21 01:17:10;;;;;;;;;;;;;;;18.46;67.19;100649.72;4803941;29;1927;-70
2021/04/21 01:40:43;;;;;;;;;;;;;;;18.45;67.18;100641.91;4821068;29;1395;-70
2021/04/21 01:43:24;;;;;;;;;;;;;;;18.44;67.07;100640.22;4814987;29;1906;-70
2021/04/21 01:45:52;;;;;;;;;;;;;;;18.44;67.38;100634.94;4803214;29;1978;-70
2021/04/21 01:48:20;;;;;;;;;;;;;;;18.43;67.25;100638.50;4813128;29;1133;-71
2021/04/21 01:50:47;;;;;;;;;;;;;;;18.42;67.27;100631.53;4817392;29;1911;-70
2021/04/21 01:53:28;;;;;;;;;;;;;;;18.43;67.18;100627.94;4816656;29;1254;-70
2021/04/21 02:13:28;;;;;;;;;;;;;;;18.42;67.08;100628.91;4815918;29;1269;-70
2021/04/21 02:16:09;;;;;;;;;;;;;;;18.43;67.13;100622.66;4825388;29;1889;-69
2021/04/21 02:18:36;;;;;;;;;;;;;;;18.43;67.16;100626.16;4824751;29;797;-71
2021/04/21 02:21:11;;;;;;;;;;;;;;;18.41;67.10;100625.41;4827721;29;1911;-71
2021/04/21 02:23:39;;;;;;;;;;;;;;;18.42;67.02;100628.91;4823279;29;789;-71
2021/04/21 02:26:25;;;;;;;;;;;;;;;18.42;67.04;100636.81;4837003;29;1890;-71
2021/04/21 02:28:58;;;;;;;;;;;;;;;18.42;67.11;100631.53;4834311;29;1962;-70
2021/04/21 02:31:34;;;;;;;;;;;;;;;18.41;67.23;100629.84;4831000;29;1898;-70
2021/04/21 02:34:01;;;;;;;;;;;;;;;18.39;67.15;100622.00;4821212;29;1934;-70
2021/04/21 02:36:30;;;;;;;;;;;;;;;18.40;67.14;100615.78;4834232;29;1331;-71
2021/04/21 02:39:02;;;;;;;;;;;;;;;18.40;67.18;100613.16;4834935;29;1980;-71
2021/04/21 02:41:37;;;;;;;;;;;;;;;18.40;67.14;100617.56;4829398;29;1349;-70
2021/04/21 02:44:09;;;;;;;;;;;;;;;18.40;67.12;100613.16;4836005;29;1929;-69
2021/04/21 02:46:40;;;;;;;;;;;;;;;18.39;67.27;100611.44;4829079;29;815;-70
2021/04/21 02:49:26;;;;;;;;;;;;;;;18.40;67.25;100607.88;4823787;29;1912;-70
2021/04/21 02:51:56;;;;;;;;;;;;;;;18.40;67.15;100609.66;4837649;29;1600;-70
2021/04/21 02:54:25;;;;;;;;;;;;;;;18.40;67.17;100610.50;4833055;29;2086;-68
2021/04/21 02:56:58;;;;;;;;;;;;;;;18.39;67.10;100607.97;4835662;29;748;-67
2021/04/21 02:59:24;;;;;;;;;;;;;;;18.39;67.42;100605.34;4826753;29;1743;-71
2021/04/21 03:01:54;;;;;;;;;;;;;;;18.38;67.14;100609.75;4824917;29;946;-69
2021/04/21 03:04:20;;;;;;;;;;;;;;;18.39;67.36;100603.53;4825631;29;1993;-69
2021/04/21 03:06:50;;;;;;;;;;;;;;;18.38;67.29;100603.63;4833851;29;1930;-69
2021/04/21 03:09:24;;;;;;;;;;;;;;;18.38;67.28;100603.63;4826789;29;1984;-69
2021/04/21 03:11:53;;;;;;;;;;;;;;;18.38;67.20;100599.22;4833762;29;702;-69
2021/04/21 03:14:22;;;;;;;;;;;;;;;18.38;67.26;100596.56;4832995;29;1931;-68
2021/04/21 03:16:57;;;;;;;;;;;;;;;18.39;67.21;100592.16;4819934;29;765;-69
2021/04/21 03:19:27;;;;;;;;;;;;;;;18.38;67.33;100588.66;4835693;29;1988;-69
2021/04/21 03:22:02;;;;;;;;;;;;;;;18.37;67.18;100586.09;4834047;29;1674;-69
2021/04/21 03:24:31;;;;;;;;;;;;;;;18.38;67.46;100590.44;4833532;29;1300;-69
2021/04/21 03:27:03;;;;;;;;;;;;;;;18.38;67.27;100590.44;4820495;29;1909;-70
2021/04/21 03:29:36;;;;;;;;;;;;;;;18.38;67.24;100593.09;4809013;29;1912;-70
2021/04/21 03:32:04;;;;;;;;;;;;;;;18.36;67.14;100592.34;4822137;29;1906;-69
2021/04/21 03:34:31;;;;;;;;;;;;;;;18.35;67.44;100588.00;4827956;29;1301;-71
2021/04/21 03:36:58;;;;;;;;;;;;;;;18.36;67.27;100589.69;4822066;29;1905;-70
2021/04/21 03:39:25;;;;;;;;;;;;;;;18.36;67.29;100584.44;4833379;29;1274;-70
2021/04/21 03:41:51;;;;;;;;;;;;;;;18.35;67.13;100582.72;4835167;29;1922;-70
2021/04/21 03:44:18;;;;;;;;;;;;;;;18.34;67.42;100576.59;4833466;29;1210;-70
2021/04/21 03:46:44;;;;;;;;;;;;;;;18.35;67.21;100572.16;4821757;29;1921;-70
2021/04/21 03:49:11;;;;;;;;;;;;;;;18.34;67.30;100573.09;4833300;29;1903;-70
2021/04/21 03:51:37;;;;;;;;;;;;;;;18.32;67.33;100567.94;4834009;29;1938;-69
2021/04/21 03:54:05;;;;;;;;;;;;;;;18.34;67.26;100565.19;4827539;29;1222;-69
2021/04/21 03:56:32;;;;;;;;;;;;;;;18.33;67.17;100566.97;4822263;29;1925;-69
2021/04/21 03:58:59;;;;;;;;;;;;;;;18.33;67.04;100569.59;4833338;29;1522;-69
2021/04/21 04:01:25;;;;;;;;;;;;;;;18.33;67.17;100568.78;4821792;29;1925;-70
2021/04/21 04:03:53;;;;;;;;;;;;;;;18.35;67.32;100574.81;4833246;29;1081;-70
2021/04/21 04:06:26;;;;;;;;;;;;;;;18.33;67.16;100574.88;4833199;29;2028;-69
2021/04/21 04:08:59;;;;;;;;;;;;;;;18.32;67.18;100578.47;4824958;29;1204;-70
2021/04/21 04:11:28;;;;;;;;;;;;;;;18.32;67.27;100573.19;4835290;29;1989;-70
2021/04/21 04:13:58;;;;;;;;;;;;;;;18.33;67.11;100571.41;4833138;29;1356;-69
2021/04/21 04:16:26;;;;;;;;;;;;;;;18.31;67.16;100568.00;4821009;29;1939;-70
2021/04/21 04:18:56;;;;;;;;;;;;;;;18.30;67.20;100569.78;4821812;29;1132;-69
2021/04/21 04:21:27;;;;;;;;;;;;;;;18.30;67.16;100566.31;4827384;29;1898;-69
2021/04/21 04:23:56;;;;;;;;;;;;;;;18.33;67.20;100568.78;4823006;29;1240;-69
2021/04/21 04:26:25;;;;;;;;;;;;;;;18.31;67.16;100571.50;4829813;29;1958;-69
2021/04/21 04:28:52;;;;;;;;;;;;;;;18.30;67.10;100569.78;4824085;29;961;-69
2021/04/21 04:31:19;;;;;;;;;;;;;;;18.31;67.19;100568.84;4832765;29;1989;-69
2021/04/21 04:33:47;;;;;;;;;;;;;;;18.30;67.29;100563.69;4836827;29;1278;-69
2021/04/21 04:36:14;;;;;;;;;;;;;;;18.31;67.14;100570.63;4837192;29;1919;-69
2021/04/21 04:38:41;;;;;;;;;;;;;;;18.31;67.17;100571.50;4837446;29;1185;-70
2021/04/21 04:41:08;;;;;;;;;;;;;;;18.31;67.10;100570.63;4831656;29;1904;-70
2021/04/21 04:43:35;;;;;;;;;;;;;;;18.28;67.09;100574.31;4822687;29;1268;-70
2021/04/21 04:46:03;;;;;;;;;;;;;;;18.30;67.39;100575.06;4837479;29;1847;-70
2021/04/21 04:48:35;;;;;;;;;;;;;;;18.29;67.10;100573.38;4836123;29;1233;-71
2021/04/21 04:51:05;;;;;;;;;;;;;;;18.30;66.90;100572.41;4830155;29;1915;-70
2021/04/21 04:53:34;;;;;;;;;;;;;;;18.28;67.33;100576.09;4839707;29;1862;-71
2021/04/21 04:56:00;;;;;;;;;;;;;;;18.28;66.93;100579.56;4837245;29;1451;-70
2021/04/21 04:58:27;;;;;;;;;;;;;;;18.29;67.16;100577.78;4838934;29;1949;-70
2021/04/21 05:00:58;;;;;;;;;;;;;;;18.29;67.21;100580.44;4830404;29;1365;-71
2021/04/21 05:03:26;;;;;;;;;;;;;;;18.29;67.12;100577.78;4824124;29;1906;-71
2021/04/21 05:05:54;;;;;;;;;;;;;;;18.27;66.98;100591.06;4829935;29;1372;-71
2021/04/21 05:08:21;;;;;;;;;;;;;;;18.27;66.98;100598.97;4824098;29;1940;-70
2021/04/21 05:11:00;;;;;;;;;;;;;;;18.27;66.98;100598.97;4830107;29;1994;-70
2021/04/21 05:13:29;;;;;;;;;;;;;;;18.28;66.84;100592.75;4824347;29;1874;-70
2021/04/21 05:15:55;;;;;;;;;;;;;;;18.27;66.87;100600.78;4835897;29;1343;-70
2021/04/21 05:18:22;;;;;;;;;;;;;;;18.28;66.85;100607.72;4823838;29;1989;-70
2021/04/21 05:20:51;;;;;;;;;;;;;;;18.26;66.94;100613.09;4834894;29;1406;-70
2021/04/21 05:23:18;;;;;;;;;;;;;;;18.20;67.28;100617.88;4835218;29;1970;-69
2021/04/21 05:26:03;;;;;;;;;;;;;;;18.22;67.20;100618.63;4829353;29;1298;-69
2021/04/21 05:28:38;;;;;;;;;;;;;;;18.24;67.42;100614.97;4827398;29;1897;-69
2021/04/21 05:31:08;;;;;;;;;;;;;;;18.25;67.35;100616.66;4823562;29;1923;-67
2021/04/21 05:33:54;;;;;;;;;;;;;;;18.25;67.09;100627.22;4832655;29;1667;-68
2021/04/21 05:36:29;;;;;;;;;;;;;;;18.25;67.55;100621.94;4839584;29;1318;-69
2021/04/21 05:39:33;;;;;;;;;;;;;;;18.26;67.41;100626.28;4828576;29;1314;-71
2021/04/21 05:42:12;;;;;;;;;;;;;;;18.26;67.60;100628.94;4819766;29;1923;-72
2021/04/21 05:44:58;;;;;;;;;;;;;;;18.27;67.67;100638.50;4830956;29;1278;-70
2021/04/21 05:47:30;;;;;;;;;;;;;;;18.29;67.55;100630.53;4836367;29;1631;-71
2021/04/21 05:50:13;;;;;;;;;;;;;;;18.31;67.90;100633.91;4837051;29;1946;-68
2021/04/21 05:53:12;;;;;;;;;;;;;;;18.29;67.65;100641.94;4832785;29;1838;-73
2021/04/21 05:55:44;;;;;;;;;;;;;;;18.37;68.12;100649.41;4811401;29;1313;-71
2021/04/21 05:58:11;;;;;;;;;;;;;;;18.30;67.93;100637.53;4831128;29;1929;-73
2021/04/21 06:00:37;;;;;;;;;;;;;;;18.35;68.09;100646.88;4820332;29;1360;-67
2021/04/21 06:03:04;;;;;;;;;;;;;;;18.31;68.07;100644.47;4830901;29;1810;-68
2021/04/21 06:05:30;;;;;;;;;;;;;;;18.29;67.84;100646.34;4820421;29;1961;-68
2021/04/21 06:08:08;;;;;;;;;;;;;;;18.27;67.66;100649.06;4833536;29;1465;-68
2021/04/21 06:10:34;;;;;;;;;;;;;;;18.26;67.86;100649.16;4820108;29;1915;-68
2021/04/21 06:13:02;;;;;;;;;;;;;;;18.25;67.78;100653.59;4829848;29;1151;-68
2021/04/21 06:15:30;;;;;;;;;;;;;;;18.24;67.68;100653.69;4822220;29;1961;-68
2021/04/21 06:17:57;;;;;;;;;;;;;;;18.23;67.84;100651.97;4829313;29;725;-68
2021/04/21 06:20:31;;;;;;;;;;;;;;;18.23;67.68;100654.59;4836276;29;1985;-67
2021/04/21 06:23:05;;;;;;;;;;;;;;;18.24;67.64;100659.78;4846094;29;1419;-68
2021/04/21 06:25:31;;;;;;;;;;;;;;;18.23;67.43;100658.09;4833787;29;1680;-69
2021/04/21 06:28:08;;;;;;;;;;;;;;;18.26;67.47;100657.06;4828839;29;828;-69
2021/04/21 06:30:36;;;;;;;;;;;;;;;18.28;67.72;100671.00;4832935;29;1962;-68
2021/04/21 06:33:03;;;;;;;;;;;;;;;18.25;67.42;100676.47;4834904;29;1311;-67
2021/04/21 06:35:30;;;;;;;;;;;;;;;18.27;67.51;100669.34;4834378;29;1919;-69
2021/04/21 06:37:57;;;;;;;;;;;;;;;18.29;67.62;100680.63;4831275;29;744;-69
2021/04/21 06:40:24;;;;;;;;;;;;;;;18.33;67.30;100688.28;4819344;29;1908;-69
2021/04/21 06:42:51;;;;;;;;;;;;;;;18.27;67.34;100691.25;4825637;29;796;-68
2021/04/21 06:45:24;;;;;;;;;;;;;;;18.29;67.26;100693.81;4834422;29;1972;-68
2021/04/21 06:47:52;;;;;;;;;;;;;;;18.29;67.12;100704.38;4833328;29;1306;-68
2021/04/21 06:50:19;;;;;;;;;;;;;;;18.28;67.39;100700.00;4822722;29;1959;-67
2021/04/21 06:52:49;;;;;;;;;;;;;;;18.28;67.23;100700.00;4821366;29;1156;-70
2021/04/21 06:55:16;;;;;;;;;;;;;;;18.29;67.21;100701.72;4840859;29;2014;-70
2021/04/21 06:57:43;;;;;;;;;;;;;;;18.29;67.13;100702.59;4821420;29;1536;-69
2021/04/21 07:00:10;;;;;;;;;;;;;;;18.28;66.92;100705.28;4836170;29;1993;-69
2021/04/21 07:02:38;;;;;;;;;;;;;;;18.26;66.95;100699.25;4833809;29;1192;-68
2021/04/21 07:05:06;;;;;;;;;;;;;;;18.26;67.07;100708.03;4829221;29;1898;-69
2021/04/21 07:07:34;;;;;;;;;;;;;;;18.25;67.03;100708.94;4821270;29;768;-69
2021/04/21 07:10:00;;;;;;;;;;;;;;;18.25;66.88;100708.09;4836227;29;1907;-68
2021/04/21 07:12:28;;;;;;;;;;;;;;;18.24;66.84;100709.06;4821080;29;1349;-70
2021/04/21 07:14:54;;;;;;;;;;;;;;;18.24;66.91;100716.97;4836115;29;1894;-70
2021/04/21 07:17:21;;;;;;;;;;;;;;;18.24;66.83;100723.06;4819922;29;807;-70
2021/04/21 07:19:47;;;;;;;;;;;;;;;18.23;66.86;100717.88;4826631;29;1927;-70
2021/04/21 07:22:18;;;;;;;;;;;;;;;18.20;67.46;100715.41;4837540;29;1103;-70
2021/04/21 07:24:45;;;;;;;;;;;;;;;18.20;67.42;100718.06;4833675;29;1911;-71
2021/04/21 07:27:12;;;;;;;;;;;;;;;18.22;67.01;100709.13;4820174;29;931;-77
2021/04/21 07:29:43;;;;;;;;;;;;;;;18.22;67.15;100714.41;4828428;29;1919;-68
2021/04/21 07:32:18;;;;;;;;;;;;;;;18.21;66.91;100722.41;4843733;29;1687;-70
2021/04/21 07:34:55;;;;;;;;;;;;;;;18.21;67.08;100717.13;4840380;29;1716;-70
2021/04/21 07:37:32;;;;;;;;;;;;;;;18.21;66.99;100719.78;4833759;29;1756;-71
2021/04/21 07:39:59;;;;;;;;;;;;;;;18.22;66.89;100724.94;4827169;29;1345;-69
2021/04/21 07:42:25;;;;;;;;;;;;;;;18.23;67.13;100717.88;4832906;29;1902;-69
2021/04/21 07:44:54;;;;;;;;;;;;;;;18.23;66.88;100723.16;4826818;29;1286;-71
2021/04/21 07:47:21;;;;;;;;;;;;;;;18.22;67.07;100722.31;4826781;29;1675;-70
2021/04/21 07:49:56;;;;;;;;;;;;;;;18.22;66.65;100718.81;4826293;29;1977;-69
2021/04/21 07:52:22;;;;;;;;;;;;;;;18.22;66.86;100718.81;4820963;29;1921;-69
2021/04/21 07:54:49;;;;;;;;;;;;;;;18.22;66.61;100721.44;4826096;29;1298;-69
2021/04/21 07:57:16;;;;;;;;;;;;;;;18.23;66.81;100725.78;4823760;29;1925;-70
2021/04/21 07:59:43;;;;;;;;;;;;;;;18.21;66.84;100728.50;4835811;29;1355;-70
2021/04/21 08:02:17;;;;;;;;;;;;;;;18.22;66.70;100732.84;4828566;29;1784;-70
2021/04/21 08:04:45;;;;;;;;;;;;;;;18.21;66.76;100727.69;4851362;29;1455;-69
2021/04/21 08:07:11;;;;;;;;;;;;;;;18.19;66.66;100730.38;4848185;29;1917;-69
2021/04/21 08:09:48;;;;;;;;;;;;;;;18.19;66.71;100737.44;4835542;29;1986;-70
2021/04/21 08:12:15;;;;;;;;;;;;;;;18.20;66.86;100737.38;4829090;29;1961;-70
2021/04/21 08:15:01;;;;;;;;;;;;;;;18.18;66.72;100736.59;4820648;29;1709;-69
2021/04/21 08:17:28;;;;;;;;;;;;;;;18.20;66.55;100747.91;4827973;29;1970;-70
2021/04/21 08:19:56;;;;;;;;;;;;;;;18.18;66.79;100741.84;4838568;29;1362;-71
2021/04/21 08:22:27;;;;;;;;;;;;;;;18.18;66.60;100746.31;4831352;29;1930;-71
2021/04/21 08:24:55;;;;;;;;;;;;;;;18.18;66.50;100747.13;4822945;29;1571;-71
2021/04/21 08:27:41;;;;;;;;;;;;;;;18.18;66.35;100744.50;4837514;29;1416;-71
2021/04/21 08:30:08;;;;;;;;;;;;;;;18.18;66.33;100744.50;4835826;29;2168;-71
2021/04/21 08:32:34;;;;;;;;;;;;;;;18.18;66.35;100754.22;4833203;29;1413;-70
2021/04/21 08:35:00;;;;;;;;;;;;;;;18.18;66.32;100751.56;4823083;29;1886;-70
2021/04/21 08:37:26;;;;;;;;;;;;;;;18.19;66.11;100755.91;4832968;29;1170;-71
2021/04/21 08:39:53;;;;;;;;;;;;;;;18.18;66.28;100759.47;4850533;29;1910;-70
2021/04/21 08:42:21;;;;;;;;;;;;;;;18.17;66.18;100757.78;4833885;29;1165;-71
2021/04/21 08:44:48;;;;;;;;;;;;;;;18.16;66.33;100767.47;4822483;29;1945;-71
2021/04/21 08:47:15;;;;;;;;;;;;;;;18.17;66.26;100763.91;4834707;29;1232;-70
2021/04/21 08:49:43;;;;;;;;;;;;;;;18.19;66.07;100759.38;4823193;29;1990;-71
2021/04/21 08:52:11;;;;;;;;;;;;;;;18.18;66.14;100760.31;4834763;29;736;-70
2021/04/21 08:54:39;;;;;;;;;;;;;;;18.18;66.26;100759.47;4823141;29;1937;-71
2021/04/21 08:57:05;;;;;;;;;;;;;;;18.19;66.07;100766.44;4837584;29;1472;-70
2021/04/21 08:59:31;;;;;;;;;;;;;;;18.18;66.32;100759.47;4837243;29;1890;-70
2021/04/21 09:01:58;;;;;;;;;;;;;;;18.16;66.46;100766.59;4829298;29;1367;-71
2021/04/21 09:04:24;;;;;;;;;;;;;;;18.15;66.33;100760.47;4833941;29;1886;-71
2021/04/21 09:06:51;;;;;;;;;;;;;;;18.15;66.76;100764.94;4828596;29;875;-71
2021/04/21 09:09:17;;;;;;;;;;;;;;;18.17;66.86;100773.59;4836075;29;1922;-70
2021/04/21 09:11:44;;;;;;;;;;;;;;;18.14;66.59;100771.97;4828625;29;1907;-72
2021/04/21 09:14:12;;;;;;;;;;;;;;;18.13;66.73;100770.25;4823887;29;1902;-71
2021/04/21 09:16:38;;;;;;;;;;;;;;;18.11;66.69;100764.22;4827686;29;797;-71
2021/04/21 09:19:15;;;;;;;;;;;;;;;18.16;66.72;100774.50;4823983;29;1782;-70
2021/04/21 09:21:41;;;;;;;;;;;;;;;18.13;66.68;100775.53;4833759;29;720;-71
2021/04/21 09:24:24;;;;;;;;;;;;;;;18.13;66.92;100772.91;4831250;29;1914;-70
2021/04/21 09:26:50;;;;;;;;;;;;;;;18.13;66.76;100777.31;4822855;29;851;-71
2021/04/21 09:29:26;;;;;;;;;;;;;;;18.12;66.92;100787.00;4828490;29;1922;-70
2021/04/21 09:32:09;;;;;;;;;;;;;;;18.13;66.60;100779.94;4822023;29;1911;-69
2021/04/21 09:34:58;;;;;;;;;;;;;;;18.16;66.70;100791.19;4833278;29;1263;-76
2021/04/21 09:37:25;;;;;;;;;;;;;;;18.22;67.17;100790.00;4822714;29;1925;-71
2021/04/21 09:39:52;;;;;;;;;;;;;;;18.26;66.72;100794.19;4833669;29;1298;-70
2021/04/21 09:42:25;;;;;;;;;;;;;;;18.22;66.50;100792.63;4821726;29;1949;-70
2021/04/21 09:44:52;;;;;;;;;;;;;;;18.21;66.51;100796.22;4829912;29;1319;-70
2021/04/21 09:47:20;;;;;;;;;;;;;;;18.20;66.39;100794.50;4820548;29;1927;-69
2021/04/21 09:49:53;;;;;;;;;;;;;;;18.23;66.75;100799.63;4833289;29;1920;-66
2021/04/21 09:52:21;;;;;;;;;;;;;;;18.22;66.27;100793.50;4822484;29;1905;-72
2021/04/21 09:54:48;;;;;;;;;;;;;;;18.19;66.67;100798.06;4828380;29;1388;-68
2021/04/21 09:57:23;;;;;;;;;;;;;;;18.18;67.28;100802.50;4822857;29;1992;-72
2021/04/21 09:59:54;;;;;;;;;;;;;;;18.19;66.77;100803.34;4832219;29;1562;-73
2021/04/21 10:02:30;;;;;;;;;;;;;;;18.27;67.07;100806.44;4835049;29;1877;-74
2021/04/21 10:04:56;;;;;;;;;;;;;;;18.23;66.47;100803.13;4840338;29;1299;-73
2021/04/21 10:07:23;;;;;;;;;;;;;;;18.23;66.64;100803.13;4835852;29;1592;-73
2021/04/21 10:09:57;;;;;;;;;;;;;;;18.25;66.23;100813.56;4839174;29;1939;-72
2021/04/21 10:12:23;;;;;;;;;;;;;;;18.22;66.55;100814.59;4835887;29;1640;-72
2021/04/21 10:15:02;;;;;;;;;;;;;;;18.25;66.45;100814.41;4837770;29;1301;-71
2021/04/21 10:17:30;;;;;;;;;;;;;;;18.26;66.17;100817.91;4832047;29;1980;-72
2021/04/21 10:20:00;;;;;;;;;;;;;;;18.27;66.17;100817.00;4849041;29;1368;-72
2021/04/21 10:22:28;;;;;;;;;;;;;;;18.26;66.47;100820.56;4831176;29;1878;-72
2021/04/21 10:24:54;;;;;;;;;;;;;;;18.26;66.20;100823.19;4819440;29;1294;-72
2021/04/21 10:27:21;;;;;;;;;;;;;;;18.26;66.20;100821.41;4843479;29;1943;-75
2021/04/21 10:29:48;;;;;;;;;;;;;;;18.27;66.25;100828.38;4836146;29;1907;-75
2021/04/21 10:32:15;;;;;;;;;;;;;;;18.27;66.04;100827.53;4827119;29;1877;-77
2021/04/21 10:34:45;;;;;;;;;;;;;;;18.26;66.31;100821.41;4841947;29;1294;-74
2021/04/21 10:37:12;;;;;;;;;;;;;;;18.28;66.21;100830.09;4826363;29;848;-74
2021/04/21 10:39:39;;;;;;;;;;;;;;;18.28;65.92;100829.22;4854669;29;1810;-74
2021/04/21 10:42:10;;;;;;;;;;;;;;;18.27;66.77;100825.72;4833769;29;1042;-76
2021/04/21 10:44:37;;;;;;;;;;;;;;;18.26;66.29;100831.09;4834163;29;1944;-78
2021/04/21 10:47:09;;;;;;;;;;;;;;;18.35;66.19;100826.19;4833643;29;1391;-76
2021/04/21 10:49:49;;;;;;;;;;;;;;;18.37;66.54;100828.72;4834361;29;2041;-81
2021/04/21 10:52:18;;;;;;;;;;;;;;;18.34;66.07;100816.56;4815359;29;1242;-70
2021/04/21 10:54:46;;;;;;;;;;;;;;;18.34;66.28;100819.19;4821433;29;1859;-80
2021/04/21 10:57:36;;;;;;;;;;;;;;;18.38;66.39;100814.63;4839509;29;796;-72
2021/04/21 11:00:02;;;;;;;;;;;;;;;18.37;66.03;100819.03;4819327;29;1942;-70
2021/04/21 11:02:44;;;;;;;;;;;;;;;18.37;65.96;100819.03;4838058;29;1851;-75
2021/04/21 11:05:21;;;;;;;;;;;;;;;18.34;66.02;100820.97;4834476;29;1894;-78
2021/04/21 11:07:58;;;;;;;;;;;;;;;18.35;65.86;100820.91;4831869;29;959;-75
2021/04/21 11:10:39;;;;;;;;;;;;;;;18.35;65.86;100820.06;4832096;29;2017;-75
2021/04/21 11:13:08;;;;;;;;;;;;;;;18.30;65.77;100811.56;4831462;29;1310;-73
2021/04/21 11:15:38;;;;;;;;;;;;;;;18.33;65.98;100814.84;4826194;29;1349;-76
2021/04/21 11:18:07;;;;;;;;;;;;;;;18.35;66.00;100822.69;4834883;29;1841;-76
2021/04/21 11:20:47;;;;;;;;;;;;;;;18.35;65.98;100822.69;4833232;29;1556;-74
2021/04/21 11:23:32;;;;;;;;;;;;;;;18.34;65.88;100815.72;4823841;29;1901;-77
2021/04/21 11:26:17;;;;;;;;;;;;;;;18.33;66.15;100811.38;4841223;29;1278;-74
2021/04/21 11:28:59;;;;;;;;;;;;;;;18.33;65.99;100816.66;4836151;29;1992;-79
2021/04/21 11:31:51;;;;;;;;;;;;;;;18.31;66.34;100813.25;4823983;29;1907;-80
2021/04/21 11:34:33;;;;;;;;;;;;;;;18.32;66.52;100820.22;4837035;29;1906;-77
2021/04/21 11:37:07;;;;;;;;;;;;;;;18.34;66.17;100800.75;4818197;29;1077;-79
2021/04/21 11:39:41;;;;;;;;;;;;;;;18.34;66.10;100800.75;4825053;29;2060;-79
2021/04/21 11:42:18;;;;;;;;;;;;;;;18.28;65.86;100800.22;4835462;29;1905;-80
2021/04/21 11:44:47;;;;;;;;;;;;;;;18.22;65.72;100801.41;4837240;29;1345;-80
2021/04/21 11:47:27;;;;;;;;;;;;;;;18.20;65.29;100792.75;4820272;29;1934;-79
2021/04/21 11:50:01;;;;;;;;;;;;;;;18.20;64.90;100799.78;4830314;29;1939;-75
2021/04/21 11:52:46;;;;;;;;;;;;;;;18.20;64.69;100799.78;4822066;29;1915;-79
2021/04/21 11:55:21;;;;;;;;;;;;;;;18.20;64.36;100799.78;4830539;29;1380;-76
2021/04/21 11:57:52;;;;;;;;;;;;;;;18.25;63.96;100800.38;4817255;29;1927;-76
2021/04/21 12:00:20;;;;;;;;;;;;;;;18.23;63.57;100797.84;4834030;29;1779;-75
2021/04/21 12:02:46;;;;;;;;;;;;;;;18.21;63.48;100785.69;4823679;29;1933;-78
2021/04/21 12:05:18;;;;;;;;;;;;;;;18.35;64.23;100793.69;4834287;29;1290;-69
2021/04/21 12:07:45;;;;;;;;;;;;;;;18.33;63.28;100790.28;4832947;29;1755;-70
2021/04/21 12:10:12;;;;;;;;;;;;;;;18.30;63.58;100790.47;4834278;29;1907;-67
2021/04/21 12:12:38;;;;;;;;;;;;;;;18.38;63.67;100804.94;4834177;29;1938;-66
2021/04/21 12:15:05;;;;;;;;;;;;;;;18.42;63.39;100806.44;4818775;29;1515;-69
2021/04/21 12:17:32;;;;;;;;;;;;;;;18.51;64.39;100795.41;4831275;29;1601;-70
2021/04/21 12:19:59;;;;;;;;;;;;;;;18.46;64.91;100786.88;4833617;29;1373;-68
2021/04/21 12:22:41;;;;;;;;;;;;;;;18.63;64.64;100793.91;4829221;29;1802;-72
2021/04/21 12:25:09;;;;;;;;;;;;;;;18.62;64.66;100794.84;4802580;29;1384;-69
2021/04/21 12:27:35;;;;;;;;;;;;;;;18.67;65.19;100799.84;4833569;29;1977;-69
2021/04/21 12:30:15;;;;;;;;;;;;;;;18.69;64.74;100798.84;4835083;29;1915;-74
2021/04/21 12:32:46;;;;;;;;;;;;;;;18.71;64.81;100796.97;4832652;29;1670;-70
2021/04/21 12:35:15;;;;;;;;;;;;;;;18.73;65.34;100804.78;4833118;29;1759;-77
2021/04/21 12:37:55;;;;;;;;;;;;;;;18.70;65.30;100797.88;4831815;29;1554;-66
2021/04/21 12:40:32;;;;;;;;;;;;;;;18.58;65.29;100795.94;4820789;29;1757;-69
2021/04/21 12:43:15;;;;;;;;;;;;;;;18.61;65.73;100805.47;4830713;29;871;-69
2021/04/21 12:45:47;;;;;;;;;;;;;;;18.52;65.55;100807.69;4835562;29;1974;-68
2021/04/21 12:48:19;;;;;;;;;;;;;;;18.49;65.36;100805.22;4836896;29;1705;-67
2021/04/21 12:50:48;;;;;;;;;;;;;;;18.47;65.89;100814.13;4833527;29;1996;-69
2021/04/21 12:53:18;;;;;;;;;;;;;;;18.47;65.55;100814.97;4836612;29;1427;-67
2021/04/21 12:55:46;;;;;;;;;;;;;;;18.49;65.52;100817.53;4833098;29;1857;-69
2021/04/21 12:58:34;;;;;;;;;;;;;;;18.47;65.65;100820.25;4823110;29;883;-69
2021/04/21 13:01:07;;;;;;;;;;;;;;;18.47;65.69;100819.41;4836228;29;1804;-69
2021/04/21 13:03:34;;;;;;;;;;;;;;;18.45;65.83;100816.00;4838272;29;777;-68
2021/04/21 13:06:00;;;;;;;;;;;;;;;18.45;65.82;100816.00;4832990;29;1759;-69
2021/04/21 13:08:28;;;;;;;;;;;;;;;18.44;65.71;100812.50;4837681;29;726;-70
2021/04/21 13:11:01;;;;;;;;;;;;;;;18.44;65.71;100807.22;4829646;29;2009;-68
2021/04/21 13:13:49;;;;;;;;;;;;;;;18.45;65.73;100802.81;4834708;29;1906;-66
2021/04/21 13:16:31;;;;;;;;;;;;;;;18.47;65.81;100803.56;4837823;29;1493;-69
2021/04/21 13:19:16;;;;;;;;;;;;;;;18.46;66.02;100799.22;4833892;29;1810;-73
2021/04/21 13:21:43;;;;;;;;;;;;;;;18.45;65.71;100805.44;4829010;29;1193;-71
2021/04/21 13:24:09;;;;;;;;;;;;;;;18.45;65.79;100810.72;4832203;29;1905;-72
2021/04/21 13:26:37;;;;;;;;;;;;;;;18.45;65.77;100808.09;4818849;29;1312;-71
2021/04/21 13:29:04;;;;;;;;;;;;;;;18.44;65.77;100815.13;4808031;29;1920;-70
2021/04/21 13:31:32;;;;;;;;;;;;;;;18.47;66.30;100807.06;4826571;29;1911;-73
2021/04/21 13:33:59;;;;;;;;;;;;;;;18.46;66.20;100807.13;4823258;29;1956;-69
2021/04/21 13:36:26;;;;;;;;;;;;;;;18.43;66.08;100804.66;4816952;29;1399;-69
2021/04/21 13:38:53;;;;;;;;;;;;;;;18.40;66.12;100805.69;4823657;29;1956;-74
2021/04/21 13:41:20;;;;;;;;;;;;;;;18.44;66.39;100803.72;4835030;29;1756;-70
2021/04/21 13:43:46;;;;;;;;;;;;;;;18.44;66.20;100798.47;4836619;29;1933;-70
2021/04/21 13:46:13;;;;;;;;;;;;;;;18.42;66.42;100795.88;4824374;29;1317;-73
2021/04/21 13:48:43;;;;;;;;;;;;;;;18.43;66.81;100789.69;4835877;29;2024;-72
2021/04/21 13:51:11;;;;;;;;;;;;;;;18.45;66.58;100795.72;4836502;29;2008;-71
2021/04/21 13:53:41;;;;;;;;;;;;;;;18.42;66.06;100790.63;4827607;29;1958;-70
2021/04/21 13:56:10;;;;;;;;;;;;;;;18.41;66.53;100788.06;4835915;29;1705;-67
2021/04/21 13:58:39;;;;;;;;;;;;;;;18.39;66.08;100789.97;4831628;29;1901;-73
2021/04/21 14:01:07;;;;;;;;;;;;;;;18.40;66.25;100781.09;4832930;29;1294;-72
2021/04/21 14:03:34;;;;;;;;;;;;;;;18.38;66.18;100778.56;4833288;29;2004;-70
2021/04/21 14:06:09;;;;;;;;;;;;;;;18.38;65.99;100777.69;4819499;29;1274;-73
2021/04/21 14:08:56;;;;;;;;;;;;;;;18.38;65.75;100775.06;4836702;29;1155;-74
2021/04/21 14:11:24;;;;;;;;;;;;;;;18.38;66.36;100769.78;4834600;29;1978;-73
2021/04/21 14:13:52;;;;;;;;;;;;;;;18.37;65.99;100766.28;4836167;29;1682;-73
2021/04/21 14:16:23;;;;;;;;;;;;;;;18.36;66.56;100764.56;4835942;29;1849;-73
2021/04/21 14:18:49;;;;;;;;;;;;;;;18.43;66.93;100775.66;4831510;29;1034;-71
2021/04/21 14:21:16;;;;;;;;;;;;;;;18.41;66.55;100766.97;4833832;29;1875;-75